• Join FlightAware (Why Join?)
  • Login
  • US Flag 
03:45PM EDT


 

Airport Tracker/Info


-or-


 

Live Flight TrackerFlight Track Log ✈ SWA920 ✈ 26-Apr-2013 ✈ KMHT - KMDW

Flight Track Log - Related Links

Times and Time Zones

All times are in EDT time to prevent confusion due to time zone crossing. See the SWA920 flight status page for this flight to view local times or setup timezone preferences in your user account.

Time Position Orientation Groundspeed Altitude Reporting Facility
EDT Latitude Longitude Course Direction KTS MPH feet Rate Location/Type
12:47PM 42.9167 -71.4167 255° West 149 171 1,200  Level KA90
12:49PM 42.9000 -71.5000 255° West 232 267 5,000 2,640 Climbing KA90
12:49PM 42.9158 -71.5414 298° West 240 276 6,300 3,300 Climbing Boston Center
12:50PM 42.9517 -71.6033 308° West 245 282 9,700 2,760 Climbing Boston Center
12:51PM 42.9692 -71.7108 283° West 242 278 11,900 2,880 Climbing Boston Center
12:52PM 42.9761 -71.8186 275° West 300 345 15,500 3,360 Climbing Boston Center
12:53PM 42.9850 -71.9547 275° West 330 380 18,700 2,760 Climbing Boston Center
12:54PM 42.9917 -72.0739 274° West 336 387 21,100 3,000 Climbing Boston Center
12:55PM 43.0006 -72.2272 275° West 367 422 24,700 2,880 Climbing Boston Center
12:56PM 43.0131 -72.3661 277° West 367 422 26,900 2,100 Climbing Boston Center
12:57PM 43.0236 -72.5111 276° West 374 430 29,000 2,040 Climbing Boston Center
12:58PM 43.0233 -72.6444 270° West 386 444 31,000 2,100 Climbing Boston Center
12:59PM 43.0314 -72.7922 274° West 391 450 33,200 1,740 Climbing Boston Center
01:00PM 43.0411 -72.9458 275° West 391 450 34,500 1,260 Climbing Boston Center
01:01PM 43.0508 -73.1192 274° West 412 474 35,800 1,260 Climbing Boston Center
01:02PM 43.0561 -73.2442 273° West 417 480 37,100 1,500 Climbing Boston Center
01:03PM 43.0608 -73.4261 272° West 417 480 38,900 1,440 Climbing Boston Center
01:04PM 43.0678 -73.5769 274° West 411 473 40,000 540 Climbing Boston Center
01:05PM 43.0747 -73.7306 274° West 405 466 40,000  Level Boston Center
01:06PM 43.0831 -73.8842 274° West 405 466 40,000  Level Boston Center
01:07PM 43.0894 -74.0378 273° West 405 466 40,000  Level Boston Center
01:08PM 43.0975 -74.1944 274° West 405 466 40,000  Level Boston Center
01:09PM 43.1036 -74.3453 273° West 405 466 40,000  Level Boston Center
01:10PM 43.1092 -74.4964 273° West 405 466 40,000  Level Boston Center
01:11PM 43.1147 -74.6444 273° West 405 466 40,000  Level Boston Center
01:12PM 43.1200 -74.7953 273° West 405 466 40,000  Level Boston Center
01:13PM 43.1253 -74.9464 273° West 405 466 40,000  Level Boston Center
01:14PM 43.1300 -75.0975 273° West 405 466 40,000  Level Boston Center
01:15PM 43.1189 -75.2219 263° West 405 466 40,000  Level Boston Center
01:16PM 43.1000 -75.3861 261° West 405 466 40,000  Level Boston Center
01:17PM 43.0817 -75.5361 261° West 405 466 40,000  Level Boston Center
01:18PM 43.0647 -75.6886 261° West 405 466 40,000  Level Boston Center
01:20PM 43.0306 -75.9589 260° West 394 453 40,000  Level Cleveland Center
01:21PM 43.0133 -76.1050 261° West 394 453 40,000  Level Cleveland Center
01:22PM 42.9942 -76.2567 260° West 394 453 40,000  Level Cleveland Center
01:23PM 42.9767 -76.4028 261° West 399 459 40,000  Level Cleveland Center
01:24PM 42.9569 -76.5517 260° West 399 459 40,000  Level Cleveland Center
01:25PM 42.9369 -76.7006 260° West 399 459 40,000  Level Cleveland Center
01:26PM 42.9169 -76.8519 260° West 399 459 40,000  Level Cleveland Center
01:27PM 42.8986 -76.9978 260° West 399 459 40,000  Level Cleveland Center
01:28PM 42.8633 -77.1386 251° West 393 452 40,000  Level Cleveland Center
01:29PM 42.8172 -77.2769 246° West 398 458 40,000  Level Cleveland Center
01:30PM 42.7711 -77.4125 245° Southwest 398 458 40,000  Level Cleveland Center
01:31PM 42.7247 -77.5533 246° West 403 464 40,000  Level Cleveland Center
01:32PM 42.6803 -77.6853 245° Southwest 403 464 40,000  Level Cleveland Center
01:33PM 42.6453 -77.7942 246° West 403 464 40,000  Level Cleveland Center
01:34PM 42.5947 -77.9461 246° West 403 464 40,000  Level Cleveland Center
01:35PM 42.5478 -78.0833 245° Southwest 403 464 40,000  Level Cleveland Center
01:36PM 42.5025 -78.2147 245° Southwest 403 464 40,000  Level Cleveland Center
01:37PM 42.4575 -78.3514 246° West 403 464 40,000  Level Cleveland Center
01:38PM 42.4100 -78.4881 245° Southwest 403 464 40,000  Level Cleveland Center
01:39PM 42.3644 -78.6244 246° West 403 464 40,000  Level Cleveland Center
01:40PM 42.3186 -78.7581 245° Southwest 403 464 40,000  Level Cleveland Center
01:41PM 42.2686 -78.8942 244° Southwest 403 464 40,000  Level Cleveland Center
01:42PM 42.2164 -79.0411 244° Southwest 403 464 40,000  Level Cleveland Center
01:43PM 42.1744 -79.1767 247° West 403 464 40,000  Level Cleveland Center
01:44PM 42.1386 -79.3175 251° West 403 464 40,000  Level Cleveland Center
01:45PM 42.1044 -79.4525 251° West 397 457 40,000  Level Cleveland Center
01:46PM 42.0683 -79.5903 251° West 391 450 40,000  Level Cleveland Center
01:47PM 42.0319 -79.7278 250° West 391 450 40,000  Level Cleveland Center
01:48PM 41.9953 -79.8650 250° West 391 450 40,000  Level Cleveland Center
01:49PM 41.9606 -79.9994 251° West 391 450 40,000  Level Cleveland Center
01:50PM 41.9217 -80.1339 249° West 391 450 40,000  Level Cleveland Center
01:51PM 41.8908 -80.2539 251° West 391 450 40,000  Level Cleveland Center
01:52PM 41.8536 -80.3881 250° West 395 455 40,000  Level Cleveland Center
01:53PM 41.8183 -80.5247 251° West 389 448 40,000  Level Cleveland Center
01:54PM 41.7806 -80.6583 249° West 389 448 40,000  Level Cleveland Center
01:55PM 41.7431 -80.8003 251° West 394 453 40,000  Level Cleveland Center
01:56PM 41.7050 -80.9336 249° West 394 453 40,000  Level Cleveland Center
01:57PM 41.6672 -81.0694 250° West 389 448 40,000  Level Cleveland Center
01:58PM 41.6247 -81.2192 249° West 389 448 40,000  Level Cleveland Center
01:59PM 41.5864 -81.3550 249° West 389 448 40,000  Level Cleveland Center
02:00PM 41.5519 -81.4878 251° West 389 448 40,000  Level Cleveland Center
02:01PM 41.5153 -81.6203 250° West 394 453 40,000  Level Cleveland Center
02:02PM 41.4767 -81.7556 249° West 388 447 40,000  Level Cleveland Center
02:03PM 41.4375 -81.8878 248° West 388 447 40,000  Level Cleveland Center
02:04PM 41.3986 -82.0197 249° West 388 447 40,000  Level Cleveland Center
02:05PM 41.3633 -82.1517 250° West 388 447 40,000  Level Cleveland Center
02:06PM 41.3614 -82.2872 269° West 369 425 40,000  Level Cleveland Center
02:07PM 41.3719 -82.4203 276° West 364 419 40,000  Level Cleveland Center
02:08PM 41.3800 -82.5561 275° West 370 426 40,000  Level Cleveland Center
02:09PM 41.3881 -82.6922 275° West 370 426 40,000  Level Cleveland Center
02:10PM 41.3939 -82.8281 273° West 370 426 40,000  Level Cleveland Center
02:11PM 41.4014 -82.9639 274° West 370 426 40,000  Level Cleveland Center
02:12PM 41.4092 -83.0969 275° West 365 420 40,000  Level Cleveland Center
02:13PM 41.4147 -83.2192 274° West 365 420 40,000  Level Cleveland Center
02:14PM 41.4217 -83.3661 274° West 365 420 40,000  Level Cleveland Center
02:15PM 41.4267 -83.4994 273° West 360 414 40,000  Level Cleveland Center
02:16PM 41.4358 -83.6300 275° West 365 420 40,000  Level Cleveland Center
02:17PM 41.4258 -83.7625 264° West 365 420 40,000 -420 Level Cleveland Center
02:18PM 41.3725 -83.8817 239° Southwest 365 420 39,200 -900 Descending Cleveland Center
02:19PM 41.3169 -83.9922 236° Southwest 365 420 38,300 -900 Descending Cleveland Center
02:20PM 41.2594 -84.1053 236° Southwest 365 420 37,400 -960 Descending Cleveland Center
02:20PM 41.2269 -84.1675 235° Southwest 365 420 36,800 -1,020 Descending Chicago Center
02:21PM 41.2303 -84.2933 272° West 354 407 35,700 -2,400 Descending Chicago Center
02:22PM 41.2525 -84.4189 283° West 349 402 31,900 -2,760 Descending Chicago Center
02:23PM 41.2756 -84.5439 284° West 350 403 30,000 -960 Descending Chicago Center
02:24PM 41.3008 -84.6922 283° West 343 395 30,000  Level Chicago Center
02:25PM 41.3217 -84.8136 283° West 339 390 30,000  Level Chicago Center
02:26PM 41.3431 -84.9350 283° West 337 388 30,000 -240 Level Chicago Center
02:28PM 41.3650 -85.0628 283° West 350 403 29,600 -660 Descending Chicago Center
02:29PM 41.3878 -85.1942 283° West 360 414 28,700 -1,080 Descending Chicago Center
02:30PM 41.4089 -85.3239 282° West 358 412 27,400 -2,040 Descending Chicago Center
02:31PM 41.4294 -85.4494 282° West 349 402 24,600 -1,980 Descending Chicago Center
02:32PM 41.4508 -85.5769 283° West 346 398 23,400 -1,200 Descending Chicago Center
02:33PM 41.4764 -85.7339 282° West 357 411 22,200 -1,080 Descending Chicago Center
02:34PM 41.4981 -85.8617 283° West 353 406 21,200 -1,440 Descending Chicago Center
02:35PM 41.5186 -85.9931 282° West 358 412 19,300 -2,100 Descending Chicago Center
02:36PM 41.5261 -86.1222 274° West 352 405 16,900 -2,580 Descending Chicago Center
02:37PM 41.5233 -86.2514 268° West 348 400 14,000 -2,760 Descending Chicago Center
02:38PM 41.5222 -86.3789 269° West 344 396 11,300 -1,980 Descending Chicago Center
02:39PM 41.5214 -86.5231 270° West 326 375 10,000 -660 Descending Chicago Center
02:40PM 41.5206 -86.6297 269° West 288 331 10,000  Level Chicago Center
02:41PM 41.5203 -86.7225 270° West 269 310 10,000  Level Chicago Center
02:42PM 41.5200 -86.8228 270° West 270 311 10,000 -660 Level Chicago Center
02:43PM 41.5189 -86.9425 269° West 271 312 8,700 -1,320 Descending Chicago Center
02:44PM 41.5161 -87.0394 268° West 264 304 7,300 -1,320 Descending Chicago Center
02:45PM 41.5167 -87.1500 270° West 255 293 6,000 -1,020 Descending Chicago TRACON
02:46PM 41.5333 -87.2333 285° West 259 298 5,300 -900 Descending Chicago TRACON
02:47PM 41.5500 -87.3167 285° West 256 295 4,300 -660 Descending Chicago TRACON
02:48PM 41.5833 -87.4000 298° West 258 297 4,000 -240 Descending Chicago TRACON
02:49PM 41.6167 -87.4833 298° West 239 275 3,900  Descending Chicago TRACON
02:50PM 41.6500 -87.5500 304° West 213 245 4,000  Climbing Chicago TRACON
02:51PM 41.6833 -87.6167 304° West 219 252 3,900 -120 Descending Chicago TRACON
02:51PM 41.6917 -87.6200 343° North 227 261 3,900 -720 Level Chicago Center
02:52PM 41.7333 -87.6667 320° Northwest 181 208 3,200 -1,140 Descending Chicago TRACON
02:53PM 41.7667 -87.7000 323° Northwest 189 217 2,000 -780 Descending Chicago TRACON
02:54PM 41.8167 -87.7000 360° North 173 199 1,700 -600 Descending Chicago TRACON
02:55PM 41.8000 -87.7333 236° Southwest 119 137 900 -840 Descending Chicago TRACON
02:57PM 41.7833 -87.7500 334° Northwest  Level FlightAware Approximate